Time;durP1;ratioP1;P1;durP2;ratioP2;P2;SDS_P1;SDS_P2;PMS_P1;PMS_P2;Temp;Humidity;BMP_temperature;BMP_pressure;BME280_temperature;BME280_humidity;BME280_pressure;Samples;Min_cycle;Max_cycle;Signal;HPM_P1;HPM_P2
2023/10/07 00:01:24;;;;;;;4.18;2.58;;;19.30;50.50;;;;;;5118889;27;46583;-75
2023/10/07 00:03:52;;;;;;;3.35;2.17;;;19.30;50.50;;;;;;5118852;27;45625;-75
2023/10/07 00:06:22;;;;;;;3.20;2.42;;;19.30;50.50;;;;;;5117411;27;45310;-75
2023/10/07 00:08:50;;;;;;;3.03;2.30;;;19.30;50.50;;;;;;5116934;27;45553;-76
2023/10/07 00:11:17;;;;;;;3.30;2.20;;;19.30;50.50;;;;;;5117186;27;45454;-75
2023/10/07 00:13:46;;;;;;;3.22;2.10;;;19.30;50.50;;;;;;5117171;27;45264;-74
2023/10/07 00:16:17;;;;;;;4.75;2.50;;;19.30;50.50;;;;;;5117399;27;45252;-75
2023/10/07 00:18:45;;;;;;;3.47;2.40;;;19.20;50.40;;;;;;5118416;27;45362;-75
2023/10/07 00:21:15;;;;;;;2.22;1.83;;;19.30;50.40;;;;;;5118278;27;46567;-75
2023/10/07 00:23:42;;;;;;;5.10;2.53;;;19.30;50.50;;;;;;5118564;27;45391;-75
2023/10/07 00:26:10;;;;;;;3.38;2.00;;;19.20;50.40;;;;;;5119327;27;45314;-75
2023/10/07 00:28:36;;;;;;;3.45;2.00;;;19.20;50.40;;;;;;5118806;27;45326;-75
2023/10/07 00:31:04;;;;;;;3.22;2.22;;;19.20;50.40;;;;;;5119264;27;46305;-75
2023/10/07 00:33:45;;;;;;;2.30;2.10;;;19.20;51.00;;;;;;5118277;27;45420;-75
2023/10/07 00:36:16;;;;;;;3.22;2.22;;;19.20;50.40;;;;;;5117087;27;45268;-75
2023/10/07 00:38:45;;;;;;;3.65;2.00;;;19.20;50.40;;;;;;5118480;27;45367;-74
2023/10/07 00:41:18;;;;;;;2.95;2.10;;;19.20;50.40;;;;;;5118847;27;45637;-76
2023/10/07 00:43:45;;;;;;;4.57;2.50;;;19.10;50.40;;;;;;5117622;27;45195;-75
2023/10/07 00:46:28;;;;;;;3.90;2.30;;;19.10;50.40;;;;;;5118166;27;45314;-75
2023/10/07 00:48:57;;;;;;;3.75;2.15;;;19.10;50.40;;;;;;5118250;27;45599;-75
2023/10/07 00:51:33;;;;;;;3.72;2.15;;;19.10;50.50;;;;;;5115787;27;46609;-75
2023/10/07 00:54:16;;;;;;;2.80;1.90;;;19.10;50.50;;;;;;5115494;27;45372;-75
2023/10/07 00:56:43;;;;;;;5.20;2.70;;;19.10;50.50;;;;;;5117299;27;44681;-75
2023/10/07 00:59:10;;;;;;;3.03;2.30;;;19.10;50.40;;;;;;5114371;27;45360;-75
2023/10/07 01:01:45;;;;;;;3.38;2.45;;;19.00;50.40;;;;;;5113402;27;45247;-76
2023/10/07 01:04:15;;;;;;;3.28;1.98;;;19.00;50.50;;;;;;5113452;27;45249;-76
2023/10/07 01:06:45;;;;;;;3.28;2.13;;;19.00;50.50;;;;;;5112818;27;45326;-76
2023/10/07 01:09:14;;;;;;;3.42;2.10;;;19.00;50.50;;;;;;5113767;27;45348;-75
2023/10/07 01:11:45;;;;;;;3.35;2.17;;;19.00;50.50;;;;;;5113177;27;45290;-76
2023/10/07 01:14:12;;;;;;;4.80;2.15;;;18.90;50.40;;;;;;5113314;27;45393;-75
2023/10/07 01:16:42;;;;;;;2.47;1.80;;;18.90;50.40;;;;;;5112857;27;45344;-75
2023/10/07 01:19:30;;;;;;;3.17;2.15;;;18.90;50.40;;;;;;5113545;27;44816;-76
2023/10/07 01:22:08;;;;;;;3.67;2.35;;;18.90;51.00;;;;;;5112515;27;45634;-75
2023/10/07 01:24:49;;;;;;;3.60;2.60;;;18.90;50.50;;;;;;5112580;27;45338;-76
2023/10/07 01:27:21;;;;;;;2.42;1.90;;;18.80;50.40;;;;;;5112842;27;45366;-74
2023/10/07 01:29:49;;;;;;;2.17;1.98;;;18.80;50.40;;;;;;5111825;27;45244;-75
2023/10/07 01:32:17;;;;;;;3.90;2.58;;;18.80;50.40;;;;;;5111577;27;45432;-75
2023/10/07 01:34:47;;;;;;;4.40;2.47;;;18.80;50.50;;;;;;5112905;27;45390;-76
2023/10/07 01:37:15;;;;;;;3.85;2.10;;;18.80;50.40;;;;;;5112013;27;45299;-75
2023/10/07 01:39:44;;;;;;;3.13;2.33;;;18.80;50.40;;;;;;5110732;27;45285;-75
2023/10/07 01:42:21;;;;;;;3.53;2.17;;;18.80;50.40;;;;;;5108000;27;45306;-75
2023/10/07 01:44:49;;;;;;;2.75;2.15;;;18.80;50.50;;;;;;5109475;27;45355;-75
2023/10/07 01:47:23;;;;;;;3.30;2.38;;;18.70;50.40;;;;;;5108716;27;45329;-75
2023/10/07 01:49:53;;;;;;;3.53;2.05;;;18.70;50.40;;;;;;5108494;27;45339;-75
2023/10/07 01:52:21;;;;;;;4.38;2.20;;;18.70;50.40;;;;;;5108455;27;45409;-74
2023/10/07 01:54:52;;;;;;;3.90;2.13;;;18.70;50.40;;;;;;5106550;27;45257;-76
2023/10/07 01:57:19;;;;;;;4.40;2.70;;;18.60;50.40;;;;;;5106825;27;45396;-75
2023/10/07 01:59:46;;;;;;;4.07;2.25;;;18.60;50.50;;;;;;5107182;27;45559;-74
2023/10/07 02:02:15;;;;;;;2.58;1.85;;;18.60;50.50;;;;;;5106494;27;46801;-75
2023/10/07 02:04:42;;;;;;;3.53;2.10;;;18.60;50.50;;;;;;5106542;27;45400;-75
2023/10/07 02:07:09;;;;;;;2.75;1.95;;;18.60;50.40;;;;;;5108502;27;45323;-75
2023/10/07 02:09:40;;;;;;;3.53;2.58;;;18.60;51.10;;;;;;5110520;27;45439;-75
2023/10/07 02:12:09;;;;;;;3.65;2.10;;;18.60;50.50;;;;;;5109801;27;45478;-75
2023/10/07 02:14:36;;;;;;;2.70;1.83;;;18.60;50.40;;;;;;5110122;27;45335;-75
2023/10/07 02:17:03;;;;;;;3.03;2.40;;;18.50;50.40;;;;;;5110679;27;45354;-74
2023/10/07 02:19:31;;;;;;;3.30;2.13;;;18.50;50.40;;;;;;5111150;27;45299;-75
2023/10/07 02:21:59;;;;;;;2.40;2.10;;;18.50;50.40;;;;;;5110400;27;45783;-74
2023/10/07 02:24:29;;;;;;;3.15;2.03;;;18.50;50.40;;;;;;5111016;27;44689;-75
2023/10/07 02:27:04;;;;;;;2.75;1.95;;;18.50;50.40;;;;;;5111743;27;45441;-75
2023/10/07 02:29:32;;;;;;;3.05;1.98;;;18.50;50.40;;;;;;5111336;27;45430;-74
2023/10/07 02:32:12;;;;;;;4.00;2.00;;;18.40;50.30;;;;;;5110902;27;45551;-75
2023/10/07 02:34:51;;;;;;;4.28;2.30;;;18.40;50.30;;;;;;5111098;27;45303;-74
2023/10/07 02:37:18;;;;;;;3.38;1.98;;;18.40;50.30;;;;;;5109992;27;45373;-75
2023/10/07 02:39:48;;;;;;;2.42;2.10;;;18.40;50.30;;;;;;5110291;27;45303;-75
2023/10/07 02:42:21;;;;;;;3.80;2.50;;;18.40;50.30;;;;;;5111184;27;45476;-75
2023/10/07 02:44:51;;;;;;;2.80;1.85;;;18.40;50.40;;;;;;5111526;27;45281;-75
2023/10/07 02:47:19;;;;;;;3.03;2.00;;;18.40;50.30;;;;;;5112702;27;45304;-75
2023/10/07 02:49:49;;;;;;;2.38;1.70;;;18.40;50.30;;;;;;5111161;27;45253;-75
2023/10/07 02:52:19;;;;;;;3.33;2.28;;;18.30;50.30;;;;;;5110435;27;47712;-75
2023/10/07 02:54:52;;;;;;;2.90;2.10;;;18.30;50.30;;;;;;5109898;27;45370;-75
2023/10/07 02:57:34;;;;;;;3.72;2.30;;;18.30;50.20;;;;;;5112213;27;45302;-75
2023/10/07 03:00:13;;;;;;;3.05;2.00;;;18.30;50.30;;;;;;5112337;27;45499;-75
2023/10/07 03:02:48;;;;;;;3.22;2.20;;;18.30;50.30;;;;;;5113494;27;45278;-74
2023/10/07 03:05:15;;;;;;;4.28;2.28;;;18.30;50.30;;;;;;5110512;27;45252;-75
2023/10/07 03:07:49;;;;;;;2.78;1.92;;;18.30;50.30;;;;;;5114831;27;45307;-75
2023/10/07 03:10:18;;;;;;;3.30;2.03;;;18.20;50.30;;;;;;5116144;27;45545;-75
2023/10/07 03:12:47;;;;;;;2.95;1.80;;;18.20;50.30;;;;;;5111819;27;46632;-75
2023/10/07 03:15:39;;;;;;;2.58;2.03;;;18.20;50.80;;;;;;5111338;27;45405;-75
2023/10/07 03:18:07;;;;;;;2.63;1.88;;;18.20;50.30;;;;;;5111960;27;45587;-75
2023/10/07 03:20:47;;;;;;;2.10;1.80;;;18.20;50.30;;;;;;5111463;27;45404;-75
2023/10/07 03:23:15;;;;;;;3.00;2.00;;;18.20;50.30;;;;;;5113497;27;46658;-74
2023/10/07 03:26:05;;;;;;;2.38;1.83;;;18.20;50.40;;;;;;5109899;27;45394;-75
2023/10/07 03:28:35;;;;;;;3.30;1.98;;;18.10;50.30;;;;;;5111200;27;45185;-74
2023/10/07 03:31:10;;;;;;;2.63;1.90;;;18.10;50.20;;;;;;5110643;27;45517;-75
2023/10/07 03:33:45;;;;;;;2.55;1.80;;;18.10;50.30;;;;;;5110724;27;47555;-75
2023/10/07 03:36:30;;;;;;;3.38;2.00;;;18.10;50.20;;;;;;5109868;27;45300;-75
2023/10/07 03:39:10;;;;;;;2.75;1.90;;;18.10;50.20;;;;;;5110711;27;45328;-75
2023/10/07 03:41:37;;;;;;;2.95;1.90;;;18.10;50.30;;;;;;5110928;27;45410;-75
2023/10/07 03:44:04;;;;;;;2.38;1.85;;;18.10;50.30;;;;;;5109910;27;45335;-75
2023/10/07 03:46:34;;;;;;;3.35;2.17;;;18.00;50.20;;;;;;5106803;27;45401;-75
2023/10/07 03:49:01;;;;;;;2.75;2.05;;;18.00;50.30;;;;;;5110015;27;45398;-75
2023/10/07 03:51:30;;;;;;;3.80;1.90;;;18.00;50.30;;;;;;5110046;27;45508;-74
2023/10/07 03:54:01;;;;;;;2.10;1.90;;;18.00;50.30;;;;;;5109200;27;46364;-75
2023/10/07 03:56:28;;;;;;;2.78;1.90;;;18.00;50.30;;;;;;5109885;27;45308;-75
2023/10/07 03:58:55;;;;;;;2.15;1.80;;;18.00;50.30;;;;;;5110272;27;45377;-75
2023/10/07 04:01:26;;;;;;;2.47;1.90;;;18.00;50.20;;;;;;5109475;27;45396;-76
2023/10/07 04:03:59;;;;;;;2.60;1.77;;;17.90;50.20;;;;;;5109157;27;45745;-75
2023/10/07 04:06:30;;;;;;;2.72;1.90;;;17.90;50.80;;;;;;5109574;27;45391;-75
2023/10/07 04:09:05;;;;;;;2.75;2.00;;;17.90;50.20;;;;;;5108993;27;45482;-74
2023/10/07 04:11:32;;;;;;;3.53;2.10;;;17.90;50.20;;;;;;5109841;27;45470;-75
2023/10/07 04:14:06;;;;;;;2.85;1.90;;;17.90;50.20;;;;;;5107771;27;45508;-73
2023/10/07 04:16:33;;;;;;;3.38;2.13;;;17.90;50.20;;;;;;5108308;27;45353;-75
2023/10/07 04:19:09;;;;;;;2.38;1.67;;;17.90;50.20;;;;;;5108734;27;45393;-75
2023/10/07 04:21:39;;;;;;;3.88;1.95;;;17.80;50.20;;;;;;5109487;27;45307;-75
2023/10/07 04:24:07;;;;;;;2.45;1.58;;;17.80;50.20;;;;;;5108496;27;47352;-75
2023/10/07 04:26:34;;;;;;;1.80;1.60;;;17.80;50.50;;;;;;5108703;27;45509;-75
2023/10/07 04:29:01;;;;;;;2.92;2.10;;;17.80;50.20;;;;;;5107966;27;45326;-75
2023/10/07 04:31:37;;;;;;;2.45;1.83;;;17.80;50.20;;;;;;5108345;27;45457;-75
2023/10/07 04:34:11;;;;;;;2.55;1.80;;;17.80;50.20;;;;;;5111200;27;45427;-75
2023/10/07 04:37:08;;;;;;;2.35;1.70;;;17.80;50.20;;;;;;5110763;27;45560;-75
2023/10/07 04:39:28;;;;;;;3.17;1.92;;;17.70;50.10;;;;;;5108313;27;45487;-75
2023/10/07 04:41:56;;;;;;;2.83;1.85;;;17.70;50.20;;;;;;5108766;27;45296;-75
2023/10/07 04:45:00;;;;;;;3.28;2.15;;;17.70;50.20;;;;;;5107860;27;47368;-75
2023/10/07 04:47:20;;;;;;;3.17;2.00;;;17.70;50.20;;;;;;5107991;27;45401;-75
2023/10/07 04:49:56;;;;;;;2.88;1.88;;;17.70;50.20;;;;;;5107967;27;45370;-75
2023/10/07 04:52:28;;;;;;;2.75;1.50;;;17.70;50.20;;;;;;5108198;27;45410;-75
2023/10/07 04:54:56;;;;;;;2.70;1.90;;;17.70;50.30;;;;;;5108011;27;47873;-75
2023/10/07 04:57:42;;;;;;;1.95;1.75;;;17.60;50.20;;;;;;5108143;27;45236;-75
2023/10/07 05:00:17;;;;;;;2.80;2.03;;;17.60;50.20;;;;;;5108177;27;45299;-75
2023/10/07 05:02:44;;;;;;;3.20;1.73;;;17.60;50.20;;;;;;5108196;27;45544;-74
2023/10/07 05:05:13;;;;;;;1.80;1.48;;;17.60;50.20;;;;;;5108259;27;46344;-74
2023/10/07 05:07:43;;;;;;;3.05;2.10;;;17.60;50.10;;;;;;5108080;27;45208;-75
2023/10/07 05:10:09;;;;;;;2.58;1.92;;;17.60;50.20;;;;;;5108358;27;45452;-75
2023/10/07 05:12:36;;;;;;;2.92;1.98;;;17.60;50.20;;;;;;5108595;27;45378;-75
2023/10/07 05:15:05;;;;;;;2.90;1.58;;;17.60;50.20;;;;;;5107920;27;45414;-75
2023/10/07 05:17:36;;;;;;;3.00;2.05;;;17.60;50.20;;;;;;5107977;27;45515;-76
2023/10/07 05:20:24;;;;;;;2.75;2.00;;;17.50;50.10;;;;;;5107634;27;45194;-77
2023/10/07 05:22:51;;;;;;;2.53;1.77;;;17.50;50.60;;;;;;5107313;27;45506;-77
2023/10/07 05:25:18;;;;;;;2.85;2.20;;;17.50;50.50;;;;;;5107565;27;45455;-77
2023/10/07 05:27:45;;;;;;;2.38;1.95;;;17.50;49.90;;;;;;5107043;27;45366;-77
2023/10/07 05:30:15;;;;;;;3.10;2.15;;;17.40;49.80;;;;;;5107180;27;45269;-77
2023/10/07 05:32:42;;;;;;;3.95;1.95;;;17.40;49.70;;;;;;5107238;27;45422;-77
2023/10/07 05:35:09;;;;;;;3.25;2.10;;;17.40;49.70;;;;;;5107318;27;45770;-77
2023/10/07 05:37:36;;;;;;;3.60;2.13;;;17.40;49.70;;;;;;5106958;27;45361;-75
2023/10/07 05:40:06;;;;;;;3.13;1.95;;;17.40;49.60;;;;;;5106368;27;45247;-76
2023/10/07 05:42:33;;;;;;;3.72;2.15;;;17.40;49.60;;;;;;5108849;27;45635;-77
2023/10/07 05:45:00;;;;;;;2.40;1.65;;;17.40;49.60;;;;;;5111548;27;45431;-77
2023/10/07 05:47:27;;;;;;;3.67;2.03;;;17.40;49.50;;;;;;5111472;27;45357;-76
2023/10/07 05:49:55;;;;;;;2.83;1.92;;;17.40;49.40;;;;;;5110846;27;45268;-76
2023/10/07 05:52:22;;;;;;;2.42;1.95;;;17.40;49.40;;;;;;5110697;27;45358;-77
2023/10/07 05:54:50;;;;;;;2.70;2.00;;;17.40;49.30;;;;;;5110623;27;45504;-76
2023/10/07 05:57:21;;;;;;;3.30;2.20;;;17.40;49.40;;;;;;5109588;27;45307;-76
2023/10/07 05:59:49;;;;;;;2.53;1.92;;;17.40;49.50;;;;;;5109611;27;45759;-76
2023/10/07 06:02:16;;;;;;;2.70;2.10;;;17.40;49.40;;;;;;5110650;27;45354;-76
2023/10/07 06:04:44;;;;;;;3.00;2.00;;;17.40;49.40;;;;;;5109976;27;47072;-76
2023/10/07 06:07:13;;;;;;;3.08;2.20;;;17.30;49.30;;;;;;5110244;27;45298;-76
2023/10/07 06:09:41;;;;;;;2.78;2.10;;;17.30;49.50;;;;;;5110285;27;45386;-76
2023/10/07 06:12:09;;;;;;;3.05;2.05;;;17.30;49.40;;;;;;5110651;27;45479;-76
2023/10/07 06:14:37;;;;;;;3.28;2.35;;;17.30;49.30;;;;;;5109902;27;45340;-77
2023/10/07 06:17:06;;;;;;;3.30;2.50;;;17.30;49.30;;;;;;5110482;27;45401;-76
2023/10/07 06:19:34;;;;;;;3.25;2.42;;;17.30;49.40;;;;;;5110342;27;45318;-78
2023/10/07 06:22:11;;;;;;;3.25;2.38;;;17.30;49.30;;;;;;5110447;27;45418;-77
2023/10/07 06:24:39;;;;;;;3.00;2.13;;;17.30;49.50;;;;;;5110025;27;46855;-77
2023/10/07 06:27:11;;;;;;;3.70;2.15;;;17.20;49.40;;;;;;5110372;27;45355;-77
2023/10/07 06:29:43;;;;;;;3.20;2.42;;;17.30;49.40;;;;;;5110525;27;45379;-77
2023/10/07 06:32:41;;;;;;;3.28;2.30;;;17.30;49.40;;;;;;5109925;27;45168;-76
2023/10/07 06:35:13;;;;;;;2.60;2.05;;;17.20;49.30;;;;;;5110293;27;45465;-76
2023/10/07 06:37:40;;;;;;;3.47;2.20;;;17.30;49.30;;;;;;5110882;27;45185;-78
2023/10/07 06:40:23;;;;;;;2.97;2.10;;;17.20;49.20;;;;;;5111046;27;45339;-76
2023/10/07 06:42:51;;;;;;;2.30;1.95;;;17.20;49.20;;;;;;5110485;27;45301;-76
2023/10/07 06:45:19;;;;;;;3.38;2.22;;;17.30;49.90;;;;;;5109749;27;45470;-77
2023/10/07 06:47:47;;;;;;;3.28;2.38;;;17.30;49.20;;;;;;5110130;27;45426;-76
2023/10/07 06:50:18;;;;;;;3.75;2.60;;;17.30;49.20;;;;;;5110467;27;45256;-78
2023/10/07 06:52:45;;;;;;;2.20;1.67;;;17.30;49.20;;;;;;5109195;27;45451;-77
2023/10/07 06:55:15;;;;;;;2.92;1.42;;;17.30;49.00;;;;;;5108589;27;46535;-77
2023/10/07 06:57:47;;;;;;;3.17;1.65;;;17.30;49.00;;;;;;5109051;27;45630;-76
2023/10/07 07:00:22;;;;;;;3.08;2.20;;;17.30;49.50;;;;;;5109937;27;45296;-77
2023/10/07 07:02:59;;;;;;;2.90;1.83;;;17.30;48.90;;;;;;5110324;27;45326;-77
2023/10/07 07:05:26;;;;;;;3.58;1.92;;;17.30;48.80;;;;;;5109498;27;46310;-77
2023/10/07 07:07:54;;;;;;;1.88;1.67;;;17.30;48.80;;;;;;5109284;27;45255;-76
2023/10/07 07:10:27;;;;;;;3.10;1.85;;;17.30;48.80;;;;;;5112418;27;45392;-77
2023/10/07 07:12:58;;;;;;;2.53;1.48;;;17.40;49.30;;;;;;5111008;27;45428;-77
2023/10/07 07:15:28;;;;;;;2.90;1.90;;;17.40;48.70;;;;;;5109437;27;45318;-76
2023/10/07 07:18:08;;;;;;;3.10;1.80;;;17.40;48.70;;;;;;5109895;27;45334;-76
2023/10/07 07:23:17;;;;;;;2.35;1.63;;;17.40;48.60;;;;;;5111587;27;45514;-76
2023/10/07 07:25:43;;;;;;;2.85;1.90;;;17.40;48.60;;;;;;5108969;27;46801;-76
2023/10/07 07:28:10;;;;;;;2.70;1.77;;;17.40;48.60;;;;;;5110874;27;45303;-77
2023/10/07 07:30:36;;;;;;;2.47;1.95;;;17.40;48.60;;;;;;5114567;27;45290;-77
2023/10/07 07:33:11;;;;;;;2.47;1.50;;;17.40;48.60;;;;;;5113890;27;45414;-76
2023/10/07 07:35:39;;;;;;;4.88;1.60;;;17.40;48.60;;;;;;5113251;27;45316;-77
2023/10/07 07:38:18;;;;;;;2.95;1.98;;;17.40;48.60;;;;;;5112377;27;45414;-78
2023/10/07 07:40:45;;;;;;;2.50;2.05;;;17.40;48.60;;;;;;5109936;27;45377;-77
2023/10/07 07:43:14;;;;;;;3.53;1.80;;;17.40;48.70;;;;;;5109955;27;45336;-77
2023/10/07 07:45:41;;;;;;;2.65;1.58;;;17.40;48.60;;;;;;5107605;27;46533;-77
2023/10/07 07:48:11;;;;;;;2.67;2.08;;;17.50;48.70;;;;;;5107518;27;45306;-76
2023/10/07 07:50:41;;;;;;;1.77;1.42;;;17.50;48.70;;;;;;5107810;27;45311;-76
2023/10/07 07:53:09;;;;;;;2.80;2.13;;;17.50;48.80;;;;;;5107771;27;45485;-77
2023/10/07 07:55:37;;;;;;;2.58;2.10;;;17.50;48.80;;;;;;5108858;27;45779;-77
2023/10/07 07:58:09;;;;;;;4.03;2.22;;;17.50;48.80;;;;;;5108374;27;45369;-77
2023/10/07 08:00:40;;;;;;;2.67;1.75;;;17.50;48.80;;;;;;5108580;27;45244;-77
2023/10/07 08:03:10;;;;;;;2.30;1.58;;;17.60;48.80;;;;;;5108247;27;45382;-78
2023/10/07 08:05:39;;;;;;;2.65;1.92;;;17.60;48.80;;;;;;5107731;27;48647;-77
2023/10/07 08:08:18;;;;;;;4.28;2.00;;;17.60;48.80;;;;;;5108617;27;45313;-76
2023/10/07 08:10:48;;;;;;;2.55;2.03;;;17.60;48.80;;;;;;5108462;27;45315;-78
2023/10/07 08:13:17;;;;;;;2.53;1.83;;;17.60;48.80;;;;;;5108136;27;45667;-77
2023/10/07 08:15:47;;;;;;;2.75;1.90;;;17.60;48.90;;;;;;5106928;27;46534;-77
2023/10/07 08:18:15;;;;;;;1.95;1.50;;;17.60;48.90;;;;;;5108259;27;45346;-76
2023/10/07 08:20:44;;;;;;;2.97;2.00;;;17.60;48.90;;;;;;5109728;27;45378;-76
2023/10/07 08:23:23;;;;;;;3.92;1.77;;;17.70;48.90;;;;;;5108948;27;45253;-76
2023/10/07 08:25:57;;;;;;;3.90;2.03;;;17.70;48.90;;;;;;5108566;27;46555;-76
2023/10/07 08:28:39;;;;;;;2.58;1.92;;;17.70;48.90;;;;;;5108252;27;45333;-72
2023/10/07 08:31:13;;;;;;;4.45;2.03;;;17.70;49.00;;;;;;5108512;27;45444;-74
2023/10/07 08:33:42;;;;;;;3.03;1.75;;;17.70;49.40;;;;;;5109058;27;44860;-73
2023/10/07 08:36:09;;;;;;;5.32;2.10;;;17.80;49.20;;;;;;5109180;27;45464;-76
2023/10/07 08:38:43;;;;;;;5.35;2.00;;;17.90;49.30;;;;;;5110216;27;45445;-76
2023/10/07 08:41:16;;;;;;;2.75;1.70;;;17.90;49.20;;;;;;5110791;27;45280;-79
2023/10/07 08:43:44;;;;;;;2.67;1.80;;;18.00;49.00;;;;;;5109397;27;45495;-75
2023/10/07 08:46:16;;;;;;;2.40;1.60;;;18.10;49.10;;;;;;5109762;27;45448;-76
2023/10/07 08:48:56;;;;;;;4.90;2.03;;;18.10;49.30;;;;;;5109918;27;45348;-76
2023/10/07 08:51:24;;;;;;;3.65;1.92;;;18.10;49.30;;;;;;5109749;27;45294;-77
2023/10/07 08:53:55;;;;;;;2.42;1.88;;;18.20;49.00;;;;;;5109092;27;45588;-73
2023/10/07 08:56:25;;;;;;;2.92;2.00;;;18.30;48.70;;;;;;5109239;27;45537;-76
2023/10/07 08:58:52;;;;;;;3.28;1.92;;;18.40;48.50;;;;;;5109971;27;45547;-73
2023/10/07 09:01:19;;;;;;;2.58;1.58;;;18.50;48.40;;;;;;5128407;27;45364;-73
2023/10/07 09:03:56;;;;;;;4.38;1.92;;;18.50;48.30;;;;;;5113941;27;45459;-72
2023/10/07 09:06:32;;;;;;;5.47;2.03;;;18.50;48.30;;;;;;5107674;27;45466;-73
2023/10/07 09:09:06;;;;;;;4.85;1.42;;;18.50;48.30;;;;;;5123014;27;45244;-72
2023/10/07 09:11:33;;;;;;;1.80;1.60;;;18.50;48.30;;;;;;5128178;27;45237;-74
2023/10/07 09:14:06;;;;;;;3.08;1.65;;;18.50;48.30;;;;;;5128185;27;45462;-75
2023/10/07 09:16:33;;;;;;;2.67;1.67;;;18.60;48.40;;;;;;5127758;27;46907;-73
2023/10/07 09:19:08;;;;;;;3.70;1.70;;;18.60;48.30;;;;;;5113431;27;45485;-74
2023/10/07 09:21:34;;;;;;;2.53;1.80;;;18.60;48.30;;;;;;5128057;27;45326;-73
2023/10/07 09:24:03;;;;;;;4.38;1.92;;;18.60;48.40;;;;;;5128748;27;45353;-75
2023/10/07 09:26:33;;;;;;;4.53;1.67;;;18.60;48.30;;;;;;5128411;27;46370;-76
2023/10/07 09:29:06;;;;;;;2.35;1.80;;;18.70;48.40;;;;;;5113377;27;45277;-76
2023/10/07 09:31:35;;;;;;;2.47;1.60;;;18.70;48.50;;;;;;5108007;27;44748;-75
2023/10/07 09:34:09;;;;;;;2.20;1.50;;;18.70;48.50;;;;;;5108058;27;45360;-74
2023/10/07 09:36:40;;;;;;;4.28;1.65;;;18.70;48.50;;;;;;5107773;27;45395;-75
2023/10/07 09:39:33;;;;;;;4.07;1.63;;;18.70;48.50;;;;;;5107071;27;45345;-75
2023/10/07 09:42:25;;;;;;;3.40;1.50;;;18.70;48.40;;;;;;5120084;27;45481;-75
2023/10/07 09:44:56;;;;;;;4.28;1.70;;;18.70;48.50;;;;;;5121058;27;45260;-76
2023/10/07 09:47:24;;;;;;;2.85;1.80;;;18.80;48.40;;;;;;5130833;27;45568;-76
2023/10/07 09:49:57;;;;;;;3.70;1.60;;;18.90;48.40;;;;;;5120679;27;45378;-73
2023/10/07 09:52:29;;;;;;;3.33;1.65;;;18.90;48.30;;;;;;5130930;27;45315;-76
2023/10/07 09:55:20;;;;;;;3.42;1.60;;;19.00;48.20;;;;;;5138797;27;45422;-77
2023/10/07 09:58:01;;;;;;;5.53;1.60;;;19.10;48.20;;;;;;5143647;27;46582;-77
2023/10/07 10:00:39;;;;;;;3.53;1.90;;;19.10;48.20;;;;;;5143196;27;45410;-78
2023/10/07 10:03:39;;;;;;;2.88;1.60;;;19.10;48.10;;;;;;5144512;27;45329;-77
2023/10/07 10:06:16;;;;;;;4.40;1.60;;;19.20;48.00;;;;;;5147094;27;44752;-78
2023/10/07 10:08:57;;;;;;;2.22;1.50;;;19.20;47.90;;;;;;5143805;27;45346;-76
2023/10/07 10:11:31;;;;;;;2.03;1.52;;;19.30;47.90;;;;;;5139194;27;45494;-76
2023/10/07 10:14:16;;;;;;;2.17;1.80;;;19.40;47.80;;;;;;5135535;27;45426;-77
2023/10/07 10:16:45;;;;;;;1.60;1.25;;;19.40;47.70;;;;;;5138378;27;45463;-77
2023/10/07 10:19:19;;;;;;;3.75;1.60;;;19.50;47.60;;;;;;5134862;27;46525;-77
2023/10/07 10:21:47;;;;;;;1.92;1.40;;;19.60;47.50;;;;;;5134268;27;45401;-75
2023/10/07 10:24:14;;;;;;;2.95;1.42;;;19.60;47.40;;;;;;5129903;27;45396;-75
2023/10/07 10:26:41;;;;;;;3.00;1.90;;;19.70;47.40;;;;;;5127616;27;45590;-77
2023/10/07 10:29:15;;;;;;;3.20;1.65;;;19.80;47.50;;;;;;5134780;27;45318;-76
2023/10/07 10:31:49;;;;;;;7.03;2.10;;;19.90;47.70;;;;;;5136914;27;45485;-77
2023/10/07 10:34:16;;;;;;;2.05;1.77;;;19.90;47.60;;;;;;5126316;27;45492;-77
2023/10/07 10:36:43;;;;;;;2.75;2.08;;;20.00;47.80;;;;;;5142081;27;45503;-78
2023/10/07 10:39:25;;;;;;;4.88;2.13;;;20.10;47.70;;;;;;5137225;27;45736;-76
2023/10/07 10:41:52;;;;;;;4.43;2.20;;;20.20;47.30;;;;;;5130410;27;45596;-77
2023/10/07 10:44:20;;;;;;;2.72;2.08;;;20.30;47.10;;;;;;5141072;27;44930;-77
2023/10/07 10:46:48;;;;;;;3.45;1.95;;;20.40;46.90;;;;;;5141164;27;45109;-77
2023/10/07 10:49:16;;;;;;;3.80;1.90;;;20.50;46.70;;;;;;5128188;27;46376;-76
2023/10/07 10:51:46;;;;;;;2.72;2.00;;;20.60;46.50;;;;;;5133445;27;45827;-75
2023/10/07 10:54:14;;;;;;;4.10;1.60;;;20.70;46.40;;;;;;5123063;27;45316;-77
2023/10/07 10:56:49;;;;;;;3.10;1.92;;;20.80;46.20;;;;;;5124293;27;45406;-77
2023/10/07 10:59:17;;;;;;;5.03;1.90;;;20.90;45.90;;;;;;5131124;27;45548;-77
2023/10/07 11:01:45;;;;;;;2.67;1.80;;;21.00;45.80;;;;;;5133746;27;44875;-76
2023/10/07 11:04:15;;;;;;;3.72;2.08;;;21.10;45.70;;;;;;5132531;27;45517;-77
2023/10/07 11:06:42;;;;;;;3.42;2.10;;;21.20;45.50;;;;;;5132265;27;45490;-77
2023/10/07 11:09:09;;;;;;;3.35;1.70;;;21.30;45.40;;;;;;5134126;27;45318;-76
2023/10/07 11:11:37;;;;;;;4.40;2.17;;;21.50;45.30;;;;;;5134364;27;45329;-77
2023/10/07 11:14:09;;;;;;;2.58;1.80;;;21.60;45.30;;;;;;5131464;27;45441;-77
2023/10/07 11:16:44;;;;;;;4.18;2.13;;;21.60;45.00;;;;;;5129821;27;45507;-76
2023/10/07 11:19:12;;;;;;;4.78;2.17;;;21.60;44.90;;;;;;5127155;27;45497;-75
2023/10/07 11:21:44;;;;;;;5.82;2.05;;;21.70;44.80;;;;;;5128398;27;45487;-75
2023/10/07 11:24:14;;;;;;;3.30;1.88;;;21.90;44.50;;;;;;5129951;27;45514;-75
2023/10/07 11:26:43;;;;;;;3.67;1.80;;;22.00;43.90;;;;;;5127913;27;45264;-76
2023/10/07 11:29:15;;;;;;;4.55;1.75;;;22.10;43.90;;;;;;5138641;27;47551;-77
2023/10/07 11:31:42;;;;;;;3.70;2.08;;;22.20;43.80;;;;;;5138004;27;45258;-76
2023/10/07 11:34:10;;;;;;;3.65;1.85;;;22.30;43.60;;;;;;5138670;27;45332;-77
2023/10/07 11:36:47;;;;;;;3.92;2.20;;;22.40;43.50;;;;;;5137915;27;45394;-77
2023/10/07 11:39:14;;;;;;;3.97;1.85;;;22.50;43.40;;;;;;5129274;27;47844;-77
2023/10/07 11:41:42;;;;;;;2.50;1.80;;;22.60;43.20;;;;;;5139232;27;45248;-77
2023/10/07 11:44:10;;;;;;;3.80;2.08;;;22.70;43.10;;;;;;5141009;27;45389;-76
2023/10/07 11:46:40;;;;;;;5.10;2.17;;;22.70;43.00;;;;;;5139260;27;45402;-77
2023/10/07 11:49:07;;;;;;;3.47;2.00;;;22.80;42.80;;;;;;5137367;27;45371;-77
2023/10/07 11:51:34;;;;;;;4.93;1.90;;;22.90;42.80;;;;;;5133830;27;45403;-77
2023/10/07 11:54:01;;;;;;;3.15;1.83;;;23.00;42.70;;;;;;5138389;27;45485;-76
2023/10/07 11:56:28;;;;;;;5.30;2.03;;;23.00;42.70;;;;;;5141190;27;45319;-75
2023/10/07 11:58:55;;;;;;;5.00;2.10;;;23.10;42.50;;;;;;5137859;27;45584;-76
2023/10/07 12:01:23;;;;;;;4.13;2.20;;;23.20;42.50;;;;;;5138857;27;45268;-77
2023/10/07 12:03:53;;;;;;;5.18;2.05;;;23.30;42.60;;;;;;5134539;27;45457;-77
2023/10/07 12:06:19;;;;;;;4.03;2.25;;;23.40;42.30;;;;;;5130321;27;45392;-75
2023/10/07 12:08:46;;;;;;;5.28;2.20;;;23.50;41.80;;;;;;5130208;27;48576;-75
2023/10/07 12:11:13;;;;;;;4.00;2.00;;;23.40;41.90;;;;;;5128324;27;45446;-76
2023/10/07 12:13:41;;;;;;;4.80;2.13;;;23.40;42.70;;;;;;5128392;27;45325;-75
2023/10/07 12:16:09;;;;;;;3.67;2.00;;;23.40;42.10;;;;;;5129286;27;45377;-75
2023/10/07 12:18:36;;;;;;;3.67;1.75;;;23.60;41.90;;;;;;5128995;27;45453;-75
2023/10/07 12:21:11;;;;;;;5.25;1.85;;;23.70;41.80;;;;;;5128808;27;45133;-75
2023/10/07 12:23:41;;;;;;;2.28;1.65;;;23.80;41.80;;;;;;5132785;27;45305;-76
2023/10/07 12:26:12;;;;;;;3.78;2.05;;;23.90;41.60;;;;;;5134708;27;45576;-77
2023/10/07 12:28:39;;;;;;;4.97;1.90;;;23.90;41.30;;;;;;5132653;27;45233;-77
2023/10/07 12:31:11;;;;;;;2.90;1.88;;;24.00;40.90;;;;;;5133411;27;45312;-77
2023/10/07 12:33:39;;;;;;;4.85;2.15;;;24.10;41.20;;;;;;5133333;27;45309;-77
2023/10/07 12:36:14;;;;;;;4.43;1.92;;;24.10;40.20;;;;;;5132956;27;45389;-74
2023/10/07 12:38:42;;;;;;;5.78;2.30;;;24.20;40.50;;;;;;5129043;27;45554;-73
2023/10/07 12:41:09;;;;;;;3.63;2.10;;;24.30;39.90;;;;;;5128707;27;45463;-73
2023/10/07 12:43:37;;;;;;;4.13;1.90;;;24.30;38.40;;;;;;5128106;27;45293;-74
2023/10/07 12:46:09;;;;;;;3.40;1.92;;;24.30;37.40;;;;;;5128460;27;45398;-74
2023/10/07 12:48:35;;;;;;;3.67;1.98;;;24.30;36.80;;;;;;5128777;27;47785;-73
2023/10/07 12:51:03;;;;;;;3.75;1.55;;;24.40;37.40;;;;;;5128058;27;45310;-73
2023/10/07 12:53:33;;;;;;;3.10;1.92;;;24.50;36.40;;;;;;5127745;27;45281;-73
2023/10/07 12:55:59;;;;;;;4.03;2.00;;;24.50;36.20;;;;;;5107259;27;45514;-73
2023/10/07 12:58:27;;;;;;;4.70;1.80;;;24.50;36.40;;;;;;5108457;27;48696;-75
2023/10/07 13:00:55;;;;;;;3.25;1.63;;;24.50;35.00;;;;;;5107925;27;45342;-74
2023/10/07 13:03:21;;;;;;;3.00;1.70;;;24.60;35.80;;;;;;5107982;27;45397;-73
2023/10/07 13:05:48;;;;;;;4.72;1.70;;;24.70;34.90;;;;;;5108002;27;45491;-74
2023/10/07 13:08:16;;;;;;;4.55;2.22;;;24.90;34.00;;;;;;5119509;27;46664;-74
2023/10/07 13:10:44;;;;;;;2.58;1.65;;;24.80;32.70;;;;;;5109022;27;45363;-74